createdAt,value
2023-04-17T00:01:16.781Z,7.63
2023-04-17T00:03:45.549Z,5.80
2023-04-17T00:06:17.561Z,5.63
2023-04-17T00:08:51.251Z,3.35
2023-04-17T00:11:30.630Z,6.03
2023-04-17T00:14:05.714Z,6.30
2023-04-17T00:16:33.033Z,4.72
2023-04-17T00:19:09.974Z,5.18
2023-04-17T00:21:40.530Z,5.65
2023-04-17T00:24:17.020Z,4.68
2023-04-17T00:26:43.884Z,4.80
2023-04-17T00:29:11.497Z,5.57
2023-04-17T00:34:38.159Z,5.05
2023-04-17T00:37:06.114Z,6.15
2023-04-17T00:42:48.578Z,4.88
2023-04-17T00:45:22.916Z,5.47
2023-04-17T00:47:57.008Z,5.25
2023-04-17T00:50:34.146Z,4.95
2023-04-17T00:53:02.246Z,4.38
2023-04-17T00:55:32.584Z,5.72
2023-04-17T00:58:03.306Z,7.35
2023-04-17T01:00:31.045Z,4.38
2023-04-17T01:03:07.001Z,5.65
2023-04-17T01:05:39.663Z,4.78
2023-04-17T01:10:51.992Z,5.40
2023-04-17T01:13:27.487Z,5.65
2023-04-17T01:16:03.893Z,6.18
2023-04-17T01:18:36.957Z,5.65
2023-04-17T01:21:11.070Z,7.28
2023-04-17T01:23:52.430Z,6.60
2023-04-17T01:26:24.991Z,6.13
2023-04-17T01:29:12.792Z,4.40
2023-04-17T01:31:54.604Z,6.70
2023-04-17T01:34:37.298Z,7.78
2023-04-17T01:37:09.393Z,7.45
2023-04-17T01:39:50.172Z,7.32
2023-04-17T01:42:25.020Z,5.07
2023-04-17T01:44:53.467Z,7.72
2023-04-17T01:47:25.378Z,5.97
2023-04-17T01:49:59.006Z,7.88
2023-04-17T01:52:26.791Z,8.57
2023-04-17T01:54:54.666Z,6.25
2023-04-17T01:57:22.462Z,5.50
2023-04-17T02:00:01.950Z,6.15
2023-04-17T02:02:36.179Z,5.78
2023-04-17T02:05:03.524Z,4.85
2023-04-17T02:07:40.096Z,8.10
2023-04-17T02:10:08.634Z,5.78
2023-04-17T02:15:42.265Z,5.60
2023-04-17T02:18:13.234Z,5.90
2023-04-17T02:20:40.923Z,5.28
2023-04-17T02:23:14.743Z,4.88
2023-04-17T02:25:57.937Z,4.18
2023-04-17T02:28:31.411Z,4.85
2023-04-17T02:31:04.286Z,7.20
2023-04-17T02:33:35.049Z,5.95
2023-04-17T02:36:34.485Z,4.03
2023-04-17T02:39:03.091Z,7.18
2023-04-17T02:41:36.576Z,5.15
2023-04-17T02:44:06.842Z,6.38
2023-04-17T02:46:36.951Z,5.88
2023-04-17T02:49:06.726Z,6.57
2023-04-17T02:51:52.001Z,4.90
2023-04-17T02:54:28.846Z,6.65
2023-04-17T02:57:04.026Z,4.57
2023-04-17T02:59:44.002Z,4.28
2023-04-17T03:02:21.197Z,4.03
2023-04-17T03:04:57.788Z,5.03
2023-04-17T03:08:04.701Z,5.03
2023-04-17T03:10:54.217Z,6.18
2023-04-17T03:13:22.082Z,4.93
2023-04-17T03:15:49.740Z,5.82
2023-04-17T03:18:18.588Z,5.25
2023-04-17T03:20:46.056Z,6.47
2023-04-17T03:23:13.058Z,7.72
2023-04-17T03:25:46.201Z,6.27
2023-04-17T03:28:13.109Z,7.28
2023-04-17T03:30:39.947Z,6.95
2023-04-17T03:33:06.944Z,7.93
2023-04-17T03:35:39.212Z,5.90
2023-04-17T03:38:22.013Z,4.05
2023-04-17T03:43:59.094Z,5.70
2023-04-17T03:46:48.125Z,6.25
2023-04-17T03:52:24.129Z,4.20
2023-04-17T03:54:51.109Z,6.35
2023-04-17T03:57:18.189Z,5.97
2023-04-17T03:59:45.800Z,7.90
2023-04-17T04:02:13.068Z,6.45
2023-04-17T04:04:40.391Z,7.10
2023-04-17T04:07:07.314Z,8.48
2023-04-17T04:09:36.607Z,5.68
2023-04-17T04:12:03.395Z,6.28
2023-04-17T04:14:30.657Z,7.90
2023-04-17T04:16:57.566Z,6.40
2023-04-17T04:19:24.473Z,8.50
2023-04-17T04:21:53.855Z,5.47
2023-04-17T04:24:20.609Z,5.38
2023-04-17T04:26:49.912Z,5.65
2023-04-17T04:29:17.071Z,6.15
2023-04-17T04:31:46.794Z,4.93
2023-04-17T04:34:13.630Z,5.78
2023-04-17T04:36:50.081Z,5.63
2023-04-17T04:39:20.919Z,6.45
2023-04-17T04:41:51.547Z,5.13
2023-04-17T04:44:19.202Z,4.70
2023-04-17T04:46:46.879Z,6.80
2023-04-17T04:49:17.341Z,5.15
2023-04-17T04:51:45.055Z,7.05
2023-04-17T04:54:22.487Z,6.38
2023-04-17T04:56:53.219Z,6.28
2023-04-17T04:59:21.134Z,7.72
2023-04-17T05:01:48.076Z,5.72
2023-04-17T05:04:33.534Z,10.33
2023-04-17T05:07:08.556Z,12.82
2023-04-17T05:09:46.499Z,11.68
2023-04-17T05:12:13.553Z,11.10
2023-04-17T05:14:41.226Z,9.43
2023-04-17T05:17:08.797Z,9.80
2023-04-17T05:19:35.662Z,8.18
2023-04-17T05:22:02.401Z,7.97
2023-04-17T05:24:32.639Z,7.15
2023-04-17T05:27:02.232Z,6.20
2023-04-17T05:29:29.058Z,8.38
2023-04-17T05:31:56.062Z,9.80
2023-04-17T05:34:22.915Z,8.97
2023-04-17T05:36:50.139Z,8.95
2023-04-17T05:39:18.568Z,7.43
2023-04-17T05:41:45.829Z,8.18
2023-04-17T05:44:15.804Z,6.80
2023-04-17T05:46:57.041Z,7.45
2023-04-17T05:49:23.986Z,7.70
2023-04-17T05:51:50.829Z,7.03
2023-04-17T05:54:17.947Z,9.07
2023-04-17T05:56:44.710Z,7.60
2023-04-17T05:59:11.925Z,9.13
2023-04-17T06:01:39.702Z,7.82
2023-04-17T06:04:12.271Z,8.25
2023-04-17T06:06:39.331Z,7.47
2023-04-17T06:09:16.957Z,8.38
2023-04-17T06:11:49.565Z,8.73
2023-04-17T06:14:16.865Z,7.43
2023-04-17T06:16:43.921Z,9.30
2023-04-17T06:19:11.554Z,7.45
2023-04-17T06:21:38.376Z,7.60
2023-04-17T06:24:48.717Z,6.95
2023-04-17T06:27:16.798Z,6.40
2023-04-17T06:29:46.870Z,6.13
2023-04-17T06:32:17.671Z,7.70
2023-04-17T06:34:58.495Z,7.53
2023-04-17T06:37:26.631Z,8.55
2023-04-17T06:39:56.852Z,8.83
2023-04-17T06:42:28.034Z,8.73
2023-04-17T06:45:49.889Z,8.77
2023-04-17T06:48:20.639Z,8.43
2023-04-17T06:50:51.627Z,8.98
2023-04-17T06:53:49.257Z,9.32
2023-04-17T06:56:30.781Z,9.13
2023-04-17T06:59:02.906Z,9.50
2023-04-17T07:01:40.748Z,10.35
2023-04-17T07:04:08.855Z,8.80
2023-04-17T07:06:37.566Z,8.50
2023-04-17T07:09:10.531Z,8.60
2023-04-17T07:11:39.932Z,10.65
2023-04-17T07:14:07.358Z,11.63
2023-04-17T07:16:43.211Z,8.85
2023-04-17T07:19:10.819Z,9.90
2023-04-17T07:21:59.386Z,10.80
2023-04-17T07:24:27.836Z,12.82
2023-04-17T07:27:01.950Z,9.55
2023-04-17T07:29:29.344Z,9.73
2023-04-17T07:31:57.328Z,8.65
2023-04-17T07:34:49.512Z,10.95
2023-04-17T07:37:16.642Z,11.50
2023-04-17T07:39:43.657Z,10.50
2023-04-17T07:42:16.907Z,13.80
2023-04-17T07:44:43.898Z,11.88
2023-04-17T07:47:11.408Z,9.90
2023-04-17T07:49:41.278Z,9.73
2023-04-17T07:52:08.180Z,11.95
2023-04-17T07:54:35.239Z,9.20
2023-04-17T07:57:11.239Z,9.40
2023-04-17T07:59:44.092Z,9.57
2023-04-17T08:02:13.303Z,9.38
2023-04-17T08:04:40.891Z,8.30
2023-04-17T08:07:13.034Z,6.80
2023-04-17T08:09:42.560Z,5.65
2023-04-17T08:12:10.862Z,5.20
2023-04-17T08:14:39.184Z,4.40
2023-04-17T08:17:07.691Z,3.63
2023-04-17T08:19:38.726Z,5.18
2023-04-17T08:22:06.364Z,6.22
2023-04-17T08:24:33.666Z,5.20
2023-04-17T08:27:06.681Z,4.22
2023-04-17T08:29:33.737Z,5.35
2023-04-17T08:32:14.114Z,5.55
2023-04-17T08:34:46.249Z,6.70
2023-04-17T08:37:13.201Z,6.70
2023-04-17T08:39:39.970Z,5.77
2023-04-17T08:42:15.840Z,4.50
2023-04-17T08:47:13.242Z,12.25
2023-04-17T08:49:44.073Z,15.50
2023-04-17T08:52:11.440Z,10.52
2023-04-17T08:54:39.187Z,5.13
2023-04-17T08:57:08.986Z,7.70
2023-04-17T08:59:36.025Z,6.25
2023-04-17T09:02:08.293Z,6.82
2023-04-17T09:04:44.162Z,5.53
2023-04-17T09:07:13.628Z,5.22
2023-04-17T09:10:00.845Z,5.60
2023-04-17T09:15:18.088Z,4.90
2023-04-17T09:17:48.972Z,4.78
2023-04-17T09:20:17.599Z,6.22
2023-04-17T09:22:47.703Z,5.03
2023-04-17T09:25:29.105Z,5.82
2023-04-17T09:31:07.140Z,5.38
2023-04-17T09:33:37.768Z,5.30
2023-04-17T09:36:24.088Z,5.47
2023-04-17T09:38:57.634Z,5.03
2023-04-17T09:44:29.079Z,4.70
2023-04-17T09:47:13.489Z,7.07
2023-04-17T09:50:05.125Z,5.93
2023-04-17T09:52:32.942Z,5.93
2023-04-17T09:55:25.260Z,6.75
2023-04-17T09:57:55.084Z,6.07
2023-04-17T10:00:25.912Z,6.53
2023-04-17T10:02:53.664Z,5.18
2023-04-17T10:07:55.534Z,4.38
2023-04-17T10:10:35.124Z,5.85
2023-04-17T10:13:04.386Z,6.78
2023-04-17T10:15:32.717Z,8.07
2023-04-17T10:18:19.741Z,6.57
2023-04-17T10:20:48.552Z,6.57
2023-04-17T10:23:41.495Z,6.03
2023-04-17T10:26:30.290Z,7.43
2023-04-17T10:29:02.350Z,7.18
2023-04-17T10:32:07.472Z,7.47
2023-04-17T10:34:39.298Z,7.53
2023-04-17T10:37:16.953Z,7.53
2023-04-17T10:40:01.834Z,12.32
2023-04-17T10:42:33.622Z,8.73
2023-04-17T10:45:07.130Z,10.15
2023-04-17T10:47:36.995Z,20.13
2023-04-17T10:50:09.147Z,7.55
2023-04-17T10:52:58.319Z,7.88
2023-04-17T10:55:30.787Z,10.45
2023-04-17T10:58:14.411Z,9.63
2023-04-17T11:01:02.603Z,8.95
2023-04-17T11:03:38.250Z,8.52
2023-04-17T11:06:13.474Z,12.95
2023-04-17T11:08:50.662Z,11.70
2023-04-17T11:11:35.312Z,6.53
2023-04-17T11:14:14.194Z,7.15
2023-04-17T11:16:43.443Z,7.07
2023-04-17T11:19:14.996Z,5.68
2023-04-17T11:21:51.993Z,6.10
2023-04-17T11:24:29.094Z,7.05
2023-04-17T11:26:59.748Z,9.80
2023-04-17T11:29:27.397Z,5.88
2023-04-17T11:31:56.585Z,7.85
2023-04-17T11:34:25.559Z,8.68
2023-04-17T11:36:57.738Z,6.22
2023-04-17T11:39:30.017Z,6.93
2023-04-17T11:41:57.376Z,5.38
2023-04-17T11:44:25.196Z,5.18
2023-04-17T11:46:52.682Z,5.35
2023-04-17T11:49:28.848Z,5.03
2023-04-17T11:51:59.338Z,5.60
2023-04-17T11:54:30.215Z,5.47
2023-04-17T11:57:12.773Z,5.50
2023-04-17T11:59:42.218Z,8.38
2023-04-17T12:02:10.242Z,7.88
2023-04-17T12:04:40.095Z,6.68
2023-04-17T12:07:08.753Z,6.38
2023-04-17T12:09:36.831Z,4.32
2023-04-17T12:12:08.263Z,6.28
2023-04-17T12:18:17.121Z,3.97
2023-04-17T12:20:44.802Z,4.45
2023-04-17T12:23:11.991Z,5.00
2023-04-17T12:25:39.558Z,5.97
2023-04-17T12:28:09.476Z,4.93
2023-04-17T12:30:40.026Z,4.88
2023-04-17T12:33:07.523Z,4.85
2023-04-17T12:35:34.562Z,6.20
2023-04-17T12:38:01.865Z,6.10
2023-04-17T12:40:28.730Z,9.15
2023-04-17T12:42:58.127Z,8.98
2023-04-17T12:45:28.402Z,7.97
2023-04-17T12:47:57.453Z,5.35
2023-04-17T12:50:25.328Z,6.63
2023-04-17T12:55:21.236Z,4.55
2023-04-17T12:57:51.164Z,5.82
2023-04-17T13:00:18.813Z,6.38
2023-04-17T13:02:45.930Z,6.78
2023-04-17T13:05:13.241Z,6.10
2023-04-17T13:07:40.043Z,5.05
2023-04-17T13:10:07.675Z,4.35
2023-04-17T13:15:01.417Z,3.50
2023-04-17T13:17:28.283Z,3.97
2023-04-17T13:19:55.347Z,4.07
2023-04-17T13:22:22.326Z,4.10
2023-04-17T13:24:49.222Z,4.97
2023-04-17T13:27:16.781Z,6.07
2023-04-17T13:29:44.062Z,6.22
2023-04-17T13:32:23.418Z,4.80
2023-04-17T13:34:53.861Z,3.55
2023-04-17T13:37:24.711Z,3.38
2023-04-17T13:39:51.966Z,4.70
2023-04-17T13:42:19.614Z,3.25
2023-04-17T13:44:46.940Z,3.55
2023-04-17T13:47:13.884Z,4.65
2023-04-17T13:49:41.128Z,3.80
2023-04-17T13:52:08.082Z,4.15
2023-04-17T13:54:35.003Z,2.77
2023-04-17T13:57:05.060Z,3.80
2023-04-17T13:59:32.117Z,4.60
2023-04-17T14:02:01.624Z,4.97
2023-04-17T14:04:32.202Z,3.38
2023-04-17T14:06:59.688Z,4.57
2023-04-17T14:09:27.542Z,4.47
2023-04-17T14:14:21.585Z,2.63
2023-04-17T14:16:49.894Z,2.88
2023-04-17T14:19:20.809Z,2.75
2023-04-17T14:22:20.339Z,3.20
2023-04-17T14:28:15.296Z,4.10
2023-04-17T14:30:42.605Z,4.78
2023-04-17T14:33:17.464Z,5.53
2023-04-17T14:35:50.598Z,5.30
2023-04-17T14:38:18.260Z,4.47
2023-04-17T14:40:59.819Z,5.40
2023-04-17T14:43:27.390Z,4.47
2023-04-17T14:45:54.439Z,4.22
2023-04-17T14:48:24.483Z,4.93
2023-04-17T14:50:51.765Z,3.00
2023-04-17T14:53:22.070Z,2.95
2023-04-17T14:55:48.924Z,4.00
2023-04-17T14:58:16.317Z,3.00
2023-04-17T15:00:45.893Z,4.43
2023-04-17T15:03:13.606Z,4.03
2023-04-17T15:08:09.628Z,2.58
2023-04-17T15:10:50.746Z,2.70
2023-04-17T15:13:18.432Z,3.17
2023-04-17T15:15:45.103Z,3.07
2023-04-17T15:18:12.029Z,2.50
2023-04-17T15:20:39.215Z,3.80
2023-04-17T15:23:09.161Z,2.63
2023-04-17T15:25:35.984Z,4.03
2023-04-17T15:28:03.290Z,4.63
2023-04-17T15:30:30.366Z,3.65
2023-04-17T15:32:57.632Z,3.72
2023-04-17T15:35:24.846Z,2.90
2023-04-17T15:37:51.784Z,3.03
2023-04-17T15:40:24.961Z,3.33
2023-04-17T15:42:58.120Z,4.10
2023-04-17T15:45:35.049Z,3.67
2023-04-17T15:50:55.769Z,4.75
2023-04-17T15:53:26.969Z,6.32
2023-04-17T15:56:02.724Z,6.28
2023-04-17T15:58:34.030Z,7.45
2023-04-17T16:01:42.959Z,7.43
2023-04-17T16:04:06.521Z,5.82
2023-04-17T16:07:20.462Z,2.67
2023-04-17T16:13:50.430Z,7.18
2023-04-17T16:17:12.518Z,6.15
2023-04-17T16:22:35.969Z,9.88
2023-04-17T16:25:20.293Z,9.82
2023-04-17T16:27:55.307Z,8.77
2023-04-17T16:30:27.638Z,8.15
2023-04-17T16:32:54.560Z,5.82
2023-04-17T16:35:43.546Z,6.43
2023-04-17T16:38:11.274Z,9.25
2023-04-17T16:40:41.738Z,6.00
2023-04-17T16:43:09.583Z,7.47
2023-04-17T16:48:13.333Z,4.32
2023-04-17T16:50:41.638Z,4.43
2023-04-17T16:53:20.161Z,5.85
2023-04-17T16:55:48.971Z,3.15
2023-04-17T16:58:22.658Z,7.65
2023-04-17T17:01:01.285Z,4.05
2023-04-17T17:03:29.012Z,5.93
2023-04-17T17:05:58.296Z,16.08
2023-04-17T17:08:29.635Z,2.95
2023-04-17T17:10:57.830Z,3.03
2023-04-17T17:13:31.824Z,5.10
2023-04-17T17:15:59.137Z,3.03
2023-04-17T17:18:26.369Z,3.78
2023-04-17T17:20:59.195Z,6.05
2023-04-17T17:23:50.373Z,3.75
2023-04-17T17:26:26.256Z,2.08
2023-04-17T17:29:22.855Z,2.25
2023-04-17T17:31:58.833Z,12.82
2023-04-17T17:34:36.573Z,4.93
2023-04-17T17:37:07.488Z,6.28
2023-04-17T17:39:42.074Z,6.35
2023-04-17T17:42:12.312Z,2.80
2023-04-17T17:44:39.985Z,2.83
2023-04-17T17:47:11.357Z,4.75
2023-04-17T17:50:40.517Z,3.30
2023-04-17T17:53:03.057Z,5.88
2023-04-17T17:56:22.751Z,2.60
2023-04-17T17:58:54.112Z,3.53
2023-04-17T18:01:56.303Z,3.45
2023-04-17T18:04:34.165Z,4.20
2023-04-17T18:07:11.615Z,4.85
2023-04-17T18:09:42.050Z,3.72
2023-04-17T18:12:35.284Z,7.03
2023-04-17T18:18:59.838Z,5.97
2023-04-17T18:22:01.365Z,4.43
2023-04-17T18:25:37.893Z,6.22
2023-04-17T18:31:47.923Z,5.20
2023-04-17T18:34:15.139Z,4.63
2023-04-17T18:40:14.218Z,5.30
2023-04-17T18:43:12.737Z,4.55
2023-04-17T18:45:40.142Z,3.88
2023-04-17T18:52:03.679Z,3.60
2023-04-17T18:57:47.768Z,7.20
2023-04-17T19:00:51.907Z,9.32
2023-04-17T19:06:41.765Z,4.22
2023-04-17T19:09:30.708Z,9.95
2023-04-17T19:12:00.880Z,9.88
2023-04-17T19:14:48.209Z,8.15
2023-04-17T19:17:54.687Z,3.72
2023-04-17T19:21:21.901Z,3.65
2023-04-17T19:24:26.022Z,3.08
2023-04-17T19:27:59.048Z,5.57
2023-04-17T19:30:56.619Z,12.05
2023-04-17T19:37:07.040Z,5.25
2023-04-17T19:40:24.393Z,2.33
2023-04-17T19:43:18.622Z,4.35
2023-04-17T19:45:52.851Z,4.63
2023-04-17T19:49:01.327Z,3.95
2023-04-17T19:51:39.098Z,3.75
2023-04-17T19:54:12.595Z,3.35
2023-04-17T19:57:16.649Z,4.38
2023-04-17T20:00:07.432Z,4.80
2023-04-17T20:02:38.577Z,4.07
2023-04-17T20:07:57.444Z,3.63
2023-04-17T20:10:34.647Z,3.17
2023-04-17T20:13:19.040Z,3.13
2023-04-17T20:16:19.939Z,3.78
2023-04-17T20:25:01.587Z,3.90
2023-04-17T20:27:49.583Z,3.55
2023-04-17T20:30:44.639Z,3.65
2023-04-17T20:33:22.900Z,2.03
2023-04-17T20:39:06.066Z,5.70
2023-04-17T20:41:32.245Z,3.00
2023-04-17T20:44:19.762Z,1.17
2023-04-17T20:46:59.184Z,2.88
2023-04-17T20:50:06.518Z,2.92
2023-04-17T20:58:54.140Z,1.60
2023-04-17T21:04:26.005Z,5.17
2023-04-17T21:07:20.093Z,2.55
2023-04-17T21:10:06.196Z,2.97
2023-04-17T21:12:54.145Z,2.28
2023-04-17T21:15:24.145Z,3.33
2023-04-17T21:18:13.459Z,2.70
2023-04-17T21:21:21.135Z,3.38
2023-04-17T21:24:04.524Z,2.10
2023-04-17T21:29:56.800Z,2.60
2023-04-17T21:32:36.199Z,2.70
2023-04-17T21:35:31.220Z,6.22
2023-04-17T21:41:09.237Z,2.17
2023-04-17T21:46:23.772Z,3.00
2023-04-17T21:49:02.312Z,2.80
2023-04-17T21:51:45.351Z,4.35
2023-04-17T21:54:37.154Z,2.38
2023-04-17T21:57:19.028Z,2.63
2023-04-17T21:59:59.980Z,3.92
2023-04-17T22:02:33.775Z,2.58
2023-04-17T22:05:13.084Z,3.10
2023-04-17T22:07:54.424Z,4.38
2023-04-17T22:13:31.071Z,5.43
2023-04-17T22:19:07.280Z,4.43
2023-04-17T22:21:41.616Z,3.25
2023-04-17T22:24:21.723Z,2.75
2023-04-17T22:27:15.928Z,2.85
2023-04-17T22:30:06.635Z,3.33
2023-04-17T22:32:41.178Z,2.83
2023-04-17T22:35:17.860Z,2.25
2023-04-17T22:38:02.297Z,2.42
2023-04-17T22:40:42.340Z,2.42
2023-04-17T22:43:12.263Z,2.88
2023-04-17T22:46:06.186Z,2.45
2023-04-17T22:49:11.579Z,3.47
2023-04-17T22:58:14.383Z,3.33
2023-04-17T23:00:50.306Z,2.85
2023-04-17T23:03:47.627Z,4.63
2023-04-17T23:06:23.948Z,2.42
2023-04-17T23:09:12.638Z,3.35
2023-04-17T23:11:58.249Z,3.28
2023-04-17T23:14:48.140Z,3.65
2023-04-17T23:17:43.526Z,2.25
2023-04-17T23:23:02.877Z,2.53
2023-04-17T23:25:39.415Z,3.70
2023-04-17T23:28:53.700Z,5.00
2023-04-17T23:31:38.417Z,3.00
2023-04-17T23:34:15.910Z,3.05
2023-04-17T23:36:58.112Z,3.30
2023-04-17T23:39:39.688Z,2.95
2023-04-17T23:42:34.190Z,2.13
2023-04-17T23:45:15.263Z,2.42
2023-04-17T23:48:12.979Z,4.82
2023-04-17T23:51:07.614Z,4.57
2023-04-17T23:53:34.835Z,3.33
2023-04-17T23:56:10.101Z,3.80
